Time;durP1;ratioP1;P1;durP2;ratioP2;P2;SDS_P1;SDS_P2;PMS_P1;PMS_P2;Temp;Humidity;BMP_temperature;BMP_pressure;BME280_temperature;BME280_humidity;BME280_pressure;Samples;Min_cycle;Max_cycle;Signal;HPM_P1;HPM_P2
2023/07/25 00:01:03;;;;;;;5.90;1.80;;;;;;;14.03;100.00;99731.60;106121;1253;60934;-68
2023/07/25 00:03:30;;;;;;;6.70;1.90;;;;;;;14.01;100.00;99731.02;106070;1254;72563;-68
2023/07/25 00:05:57;;;;;;;5.40;2.10;;;;;;;13.97;100.00;99729.30;106098;1257;70369;-67
2023/07/25 00:08:24;;;;;;;6.10;1.90;;;;;;;13.90;100.00;99725.66;106204;1253;72756;-68
2023/07/25 00:10:50;;;;;;;6.10;1.70;;;;;;;13.85;100.00;99726.86;106140;1253;60830;-67
2023/07/25 00:13:18;;;;;;;5.90;1.90;;;;;;;13.80;100.00;99726.34;106117;1253;60484;-67
2023/07/25 00:15:45;;;;;;;4.50;1.80;;;;;;;13.75;100.00;99729.74;106096;1253;73869;-67
2023/07/25 00:18:11;;;;;;;5.20;1.70;;;;;;;13.70;100.00;99732.75;106146;1252;70009;-68
2023/07/25 00:20:38;;;;;;;5.60;1.90;;;;;;;13.65;100.00;99733.23;106289;1253;72694;-68
2023/07/25 00:23:05;;;;;;;4.50;1.90;;;;;;;13.61;100.00;99731.14;106059;1252;60879;-68
2023/07/25 00:25:32;;;;;;;5.60;2.00;;;;;;;13.57;100.00;99731.75;106092;1257;60549;-67
2023/07/25 00:27:59;;;;;;;8.30;1.90;;;;;;;13.53;100.00;99727.69;105963;1254;72587;-67
2023/07/25 00:30:25;;;;;;;5.90;2.00;;;;;;;13.49;100.00;99725.09;106333;1252;71163;-69
2023/07/25 00:32:52;;;;;;;7.00;2.10;;;;;;;13.44;100.00;99724.27;106104;1253;73078;-67
2023/07/25 00:35:19;;;;;;;5.30;1.80;;;;;;;13.39;100.00;99726.93;106028;1253;61056;-67
2023/07/25 00:37:45;;;;;;;7.60;2.10;;;;;;;13.35;100.00;99727.61;106032;1253;60507;-67
2023/07/25 00:40:13;;;;;;;7.80;1.90;;;;;;;13.30;100.00;99727.41;106057;1256;73945;-67
2023/07/25 00:42:39;;;;;;;8.10;2.20;;;;;;;13.26;100.00;99728.16;106401;1253;70508;-67
2023/07/25 00:45:07;;;;;;;6.80;2.30;;;;;;;13.22;100.00;99734.57;106094;1253;60440;-67
2023/07/25 00:47:34;;;;;;;5.40;2.40;;;;;;;13.17;100.00;99736.40;106153;1252;60777;-67
2023/07/25 00:50:00;;;;;;;7.50;2.40;;;;;;;13.14;100.00;99734.70;106132;1253;60473;-67
2023/07/25 00:52:27;;;;;;;6.50;2.60;;;;;;;13.12;100.00;99736.21;106455;1253;73214;-68
2023/07/25 00:54:54;;;;;;;8.40;2.70;;;;;;;13.09;100.00;99732.65;106304;1252;71136;-66
2023/07/25 00:57:21;;;;;;;8.70;2.80;;;;;;;13.06;100.00;99734.27;106120;1252;72716;-67
2023/07/25 00:59:48;;;;;;;5.60;2.60;;;;;;;13.03;100.00;99736.73;106010;1257;60948;-67
2023/07/25 01:02:15;;;;;;;8.30;3.10;;;;;;;13.02;100.00;99738.02;106149;1252;60425;-67
2023/07/25 01:04:43;;;;;;;10.50;3.40;;;;;;;13.01;100.00;99734.83;106347;1253;73550;-69
2023/07/25 01:07:12;;;;;;;6.90;3.00;;;;;;;13.00;100.00;99734.63;106205;1254;69942;-68
2023/07/25 01:09:43;;;;;;;7.20;3.20;;;;;;;12.99;100.00;99731.85;106305;1255;72647;-68
2023/07/25 01:12:11;;;;;;;6.80;2.70;;;;;;;12.99;100.00;99737.83;106095;1253;60978;-69
2023/07/25 01:14:39;;;;;;;10.50;3.20;;;;;;;12.99;100.00;99737.43;106283;1252;60873;-67
2023/07/25 01:17:08;;;;;;;7.80;2.80;;;;;;;12.98;100.00;99736.92;106083;1253;71898;-68
2023/07/25 01:19:37;;;;;;;8.90;3.00;;;;;;;13.00;100.00;99735.17;106191;1253;69989;-67
2023/07/25 01:22:04;;;;;;;8.70;3.10;;;;;;;13.01;100.00;99731.08;106144;1253;71486;-67
2023/07/25 01:24:31;;;;;;;9.30;3.20;;;;;;;13.02;100.00;99732.23;106306;1257;60792;-67
2023/07/25 01:26:58;;;;;;;8.50;2.90;;;;;;;13.04;100.00;99736.29;106205;1253;60451;-68
2023/07/25 01:29:25;;;;;;;9.70;2.80;;;;;;;13.06;100.00;99739.39;106207;1253;73809;-67
2023/07/25 01:31:51;;;;;;;8.60;3.10;;;;;;;13.10;100.00;99746.73;106069;1253;70964;-68
2023/07/25 01:34:18;;;;;;;8.80;2.90;;;;;;;13.12;100.00;99750.53;106114;1253;71488;-68
2023/07/25 01:36:45;;;;;;;7.80;2.80;;;;;;;13.14;100.00;99747.70;106354;1254;61891;-67
2023/07/25 01:39:12;;;;;;;10.20;2.90;;;;;;;13.18;100.00;99752.10;106187;1252;60844;-68
2023/07/25 01:41:41;;;;;;;9.80;2.60;;;;;;;13.21;100.00;99753.84;106143;1256;72610;-68
2023/07/25 01:44:07;;;;;;;7.20;2.80;;;;;;;13.24;100.00;99751.36;106113;1256;69739;-68
2023/07/25 01:46:34;;;;;;;7.50;3.00;;;;;;;13.26;100.00;99757.20;106325;1252;71488;-68
2023/07/25 01:49:01;;;;;;;8.10;2.70;;;;;;;13.28;100.00;99755.73;106127;1253;60564;-67
2023/07/25 01:51:28;;;;;;;8.10;2.60;;;;;;;13.30;100.00;99752.98;106200;1254;60421;-68
2023/07/25 01:53:58;;;;;;;6.20;2.60;;;;;;;13.32;100.00;99756.83;106080;1257;73849;-68
2023/07/25 01:56:25;;;;;;;9.60;3.10;;;;;;;13.33;100.00;99760.54;106302;1253;71400;-68
2023/07/25 01:58:52;;;;;;;9.40;2.70;;;;;;;13.34;100.00;99763.56;106158;1253;72795;-66
2023/07/25 02:01:19;;;;;;;6.60;2.60;;;;;;;13.36;100.00;99763.89;106189;1253;61178;-67
2023/07/25 02:03:46;;;;;;;7.50;2.60;;;;;;;13.37;100.00;99763.84;106093;1254;60566;-66
2023/07/25 02:06:12;;;;;;;5.50;2.70;;;;;;;13.38;100.00;99765.92;106184;1256;73814;-68
2023/07/25 02:08:39;;;;;;;6.80;2.60;;;;;;;13.40;100.00;99765.29;106347;1253;70529;-68
2023/07/25 02:11:06;;;;;;;11.20;3.00;;;;;;;13.40;100.00;99765.77;106030;1253;72746;-68
2023/07/25 02:13:33;;;;;;;7.30;2.60;;;;;;;13.41;100.00;99762.95;106086;1253;60843;-68
2023/07/25 02:15:59;;;;;;;8.80;2.60;;;;;;;13.42;100.00;99760.56;106136;1256;60343;-67
2023/07/25 02:18:26;;;;;;;6.10;2.40;;;;;;;13.44;100.00;99761.29;106209;1253;72686;-69
2023/07/25 02:20:52;;;;;;;9.30;2.50;;;;;;;13.45;100.00;99768.05;106203;1252;71789;-68
2023/07/25 02:23:19;;;;;;;7.80;2.60;;;;;;;13.47;100.00;99770.45;106023;1252;71532;-67
2023/07/25 02:25:47;;;;;;;7.30;2.60;;;;;;;13.50;100.00;99774.20;106104;1257;61390;-67
2023/07/25 02:28:14;;;;;;;10.00;2.60;;;;;;;13.52;100.00;99771.96;106076;1257;60443;-68
2023/07/25 02:30:41;;;;;;;6.00;2.20;;;;;;;13.52;100.00;99768.57;106460;1253;73234;-67
2023/07/25 02:33:07;;;;;;;7.00;2.40;;;;;;;13.53;100.00;99765.57;106160;1253;69895;-68
2023/07/25 02:35:35;;;;;;;10.50;2.80;;;;;;;13.56;100.00;99770.35;106075;1253;72676;-67
2023/07/25 02:38:01;;;;;;;8.00;2.60;;;;;;;13.57;100.00;99767.61;106107;1254;62101;-68
2023/07/25 02:40:28;;;;;;;7.90;2.30;;;;;;;13.59;100.00;99759.08;106114;1253;60473;-69
2023/07/25 02:42:55;;;;;;;6.00;2.30;;;;;;;13.60;100.00;99756.69;106125;1252;72737;-69
2023/07/25 02:45:22;;;;;;;8.70;2.60;;;;;;;13.61;100.00;99760.50;106006;1253;69925;-71
2023/07/25 02:47:48;;;;;;;7.00;2.50;;;;;;;13.62;100.00;99766.11;106321;1256;72003;-69
2023/07/25 02:50:15;;;;;;;7.30;2.80;;;;;;;13.62;100.00;99765.45;106216;1253;62067;-69
2023/07/25 02:52:42;;;;;;;8.80;2.70;;;;;;;13.64;100.00;99768.71;106422;1257;60873;-69
2023/07/25 02:55:09;;;;;;;11.10;3.10;;;;;;;13.66;100.00;99765.61;106150;1252;72569;-67
2023/07/25 02:57:36;;;;;;;10.00;2.90;;;;;;;13.68;100.00;99767.04;106020;1252;70064;-69
2023/07/25 03:00:06;;;;;;;8.70;2.70;;;;;;;13.70;100.00;99766.73;105880;1258;72631;-68
2023/07/25 03:02:32;;;;;;;7.30;2.70;;;;;;;13.70;100.00;99766.11;106201;1253;60785;-70
2023/07/25 03:04:59;;;;;;;8.10;2.70;;;;;;;13.71;100.00;99760.82;106248;1257;60426;-68
2023/07/25 03:07:26;;;;;;;8.50;2.60;;;;;;;13.72;100.00;99761.42;106034;1253;72686;-68
2023/07/25 03:09:53;;;;;;;7.20;3.20;;;;;;;13.72;100.00;99757.58;106129;1257;70059;-68
2023/07/25 03:12:20;;;;;;;9.70;3.10;;;;;;;13.71;100.00;99759.38;106184;1253;72683;-67
2023/07/25 03:14:47;;;;;;;7.00;3.20;;;;;;;13.71;100.00;99749.84;106267;1254;60494;-68
2023/07/25 03:17:13;;;;;;;12.10;3.00;;;;;;;13.71;100.00;99746.11;106174;1253;60455;-68
2023/07/25 03:19:40;;;;;;;9.00;3.30;;;;;;;13.71;100.00;99745.04;106069;1253;73919;-68
2023/07/25 03:22:07;;;;;;;7.10;3.20;;;;;;;13.71;100.00;99748.94;106122;1253;71361;-68
2023/07/25 03:24:34;;;;;;;8.70;3.30;;;;;;;13.71;100.00;99753.11;106157;1256;71499;-69
2023/07/25 03:27:00;;;;;;;7.70;3.30;;;;;;;13.69;100.00;99745.14;105929;1258;60571;-67
2023/07/25 03:29:29;;;;;;;8.90;3.20;;;;;;;13.70;100.00;99743.55;106236;1252;60456;-67
2023/07/25 03:31:56;;;;;;;8.60;3.40;;;;;;;13.71;100.00;99743.27;106073;1253;73840;-69
2023/07/25 03:34:22;;;;;;;10.90;3.40;;;;;;;13.72;100.00;99738.46;106044;1253;61246;-68
2023/07/25 03:36:49;;;;;;;9.50;3.10;;;;;;;13.73;100.00;99736.94;106303;1253;71475;-69
2023/07/25 03:39:16;;;;;;;8.50;3.10;;;;;;;13.73;100.00;99742.96;106235;1253;61434;-69
2023/07/25 03:41:43;;;;;;;8.00;3.30;;;;;;;13.73;100.00;99751.04;106283;1257;61225;-69
2023/07/25 03:44:11;;;;;;;9.40;3.40;;;;;;;13.74;100.00;99753.75;106057;1253;72732;-67
2023/07/25 03:46:37;;;;;;;7.10;3.40;;;;;;;13.75;100.00;99742.83;106178;1257;71298;-68
2023/07/25 03:49:04;;;;;;;13.70;3.90;;;;;;;13.77;100.00;99741.83;106143;1253;70986;-70
2023/07/25 03:51:31;;;;;;;12.50;3.30;;;;;;;13.79;100.00;99746.19;106145;1253;62127;-68
2023/07/25 03:53:58;;;;;;;7.20;3.20;;;;;;;13.80;100.00;99751.56;106155;1253;60668;-69
2023/07/25 03:56:25;;;;;;;9.40;3.40;;;;;;;13.81;100.00;99748.23;106127;1253;72660;-69
2023/07/25 03:58:52;;;;;;;10.00;3.30;;;;;;;13.82;100.00;99752.15;106338;1253;69964;-69
2023/07/25 04:01:18;;;;;;;9.20;3.20;;;;;;;13.83;100.00;99752.80;106096;1257;72061;-68
2023/07/25 04:03:45;;;;;;;8.40;3.40;;;;;;;13.82;100.00;99752.84;106031;1256;60823;-69
2023/07/25 04:06:12;;;;;;;7.00;3.30;;;;;;;13.82;100.00;99754.90;106120;1253;60717;-69
2023/07/25 04:08:39;;;;;;;9.70;3.30;;;;;;;13.80;100.00;99755.29;106198;1253;72737;-69
2023/07/25 04:11:05;;;;;;;7.50;3.10;;;;;;;13.80;100.00;99757.79;106195;1253;60322;-69
2023/07/25 04:13:32;;;;;;;6.40;3.20;;;;;;;13.83;100.00;99758.09;106005;1252;71421;-68
2023/07/25 04:15:59;;;;;;;11.60;4.10;;;;;;;13.86;100.00;99761.38;106009;1253;62059;-67
2023/07/25 04:18:25;;;;;;;8.80;3.10;;;;;;;13.88;100.00;99764.11;106071;1253;60404;-70
2023/07/25 04:20:52;;;;;;;8.60;3.40;;;;;;;13.89;100.00;99762.38;106204;1257;71742;-69
2023/07/25 04:23:21;;;;;;;11.90;4.40;;;;;;;13.90;100.00;99767.52;106184;1253;70674;-69
2023/07/25 04:25:49;;;;;;;9.30;3.90;;;;;;;13.89;100.00;99770.87;106302;1253;71503;-71
2023/07/25 04:28:16;;;;;;;8.20;3.70;;;;;;;13.89;100.00;99773.09;106214;1253;62721;-69
2023/07/25 04:30:43;;;;;;;11.10;3.80;;;;;;;13.89;100.00;99778.46;106075;1257;60521;-71
2023/07/25 04:33:09;;;;;;;11.40;3.80;;;;;;;13.90;100.00;99778.61;106135;1253;74612;-69
2023/07/25 04:35:36;;;;;;;7.50;3.40;;;;;;;13.91;100.00;99776.77;106084;1253;70897;-69
2023/07/25 04:38:03;;;;;;;8.40;3.40;;;;;;;13.91;100.00;99774.31;106038;1253;71896;-70
2023/07/25 04:40:30;;;;;;;8.70;3.50;;;;;;;13.89;100.00;99769.85;106014;1253;62085;-69
2023/07/25 04:42:56;;;;;;;8.30;3.30;;;;;;;13.90;100.00;99769.10;106343;1253;60470;-69
2023/07/25 04:45:23;;;;;;;12.40;3.90;;;;;;;13.88;100.00;99761.12;106117;1253;73859;-69
2023/07/25 04:47:50;;;;;;;8.00;3.30;;;;;;;13.88;100.00;99755.83;106079;1253;71273;-69
2023/07/25 04:50:17;;;;;;;8.30;3.30;;;;;;;13.86;100.00;99756.18;106009;1253;71707;-69
2023/07/25 04:52:43;;;;;;;8.80;3.20;;;;;;;13.87;100.00;99753.79;106003;1253;62001;-69
2023/07/25 04:55:10;;;;;;;10.60;3.40;;;;;;;13.90;100.00;99758.02;106306;1253;60455;-69
2023/07/25 04:57:37;;;;;;;6.80;3.20;;;;;;;13.93;100.00;99758.91;106088;1257;60477;-69
2023/07/25 05:00:06;;;;;;;9.00;3.40;;;;;;;13.97;100.00;99759.16;106193;1253;71124;-70
2023/07/25 05:02:33;;;;;;;7.70;3.50;;;;;;;14.02;100.00;99761.11;106165;1252;72647;-68
2023/07/25 05:04:59;;;;;;;9.50;3.50;;;;;;;14.06;100.00;99754.38;106275;1257;60628;-68
2023/07/25 05:07:26;;;;;;;8.60;3.00;;;;;;;14.11;100.00;99758.15;106122;1253;60915;-68
2023/07/25 05:09:53;;;;;;;8.90;3.30;;;;;;;14.16;100.00;99759.25;106107;1257;73926;-69
2023/07/25 05:12:19;;;;;;;8.70;3.30;;;;;;;14.25;100.00;99759.15;106219;1253;60456;-68
2023/07/25 05:14:46;;;;;;;8.70;3.30;;;;;;;14.33;100.00;99753.60;106055;1253;60443;-70
2023/07/25 05:17:13;;;;;;;8.40;3.00;;;;;;;14.41;100.00;99751.05;106220;1253;62097;-68
2023/07/25 05:19:41;;;;;;;8.90;3.00;;;;;;;14.46;100.00;99749.06;106144;1257;61630;-69
2023/07/25 05:22:08;;;;;;;8.00;2.90;;;;;;;14.50;100.00;99753.98;106156;1253;73852;-69
2023/07/25 05:24:35;;;;;;;7.40;3.30;;;;;;;14.53;100.00;99758.66;106071;1253;71199;-70
2023/07/25 05:27:03;;;;;;;8.60;3.60;;;;;;;14.56;100.00;99760.67;106411;1257;71328;-69
2023/07/25 05:29:30;;;;;;;8.70;2.90;;;;;;;14.59;100.00;99758.84;106203;1253;61046;-69
2023/07/25 05:31:57;;;;;;;8.60;3.30;;;;;;;14.63;100.00;99753.16;106247;1258;61239;-70
2023/07/25 05:34:23;;;;;;;7.00;3.00;;;;;;;14.62;100.00;99754.20;106130;1253;74358;-69
2023/07/25 05:36:50;;;;;;;7.80;3.00;;;;;;;14.55;100.00;99752.99;106112;1253;70555;-68
2023/07/25 05:39:17;;;;;;;7.60;3.10;;;;;;;14.54;100.00;99751.92;106286;1253;72461;-69
2023/07/25 05:41:44;;;;;;;10.10;3.50;;;;;;;14.52;100.00;99748.38;106044;1252;61974;-69
2023/07/25 05:44:10;;;;;;;9.40;3.20;;;;;;;14.53;100.00;99754.40;106211;1253;60479;-69
2023/07/25 05:46:37;;;;;;;9.90;3.00;;;;;;;14.53;100.00;99748.04;106131;1253;73932;-69
2023/07/25 05:49:04;;;;;;;11.50;3.50;;;;;;;14.54;100.00;99753.02;106313;1253;71199;-70
2023/07/25 05:51:34;;;;;;;10.60;3.30;;;;;;;14.55;100.00;99753.74;106078;1257;71438;-69
2023/07/25 05:54:01;;;;;;;10.00;3.40;;;;;;;14.59;100.00;99762.92;106057;1253;61029;-69
2023/07/25 05:56:27;;;;;;;9.60;3.40;;;;;;;14.65;100.00;99759.46;106191;1253;60472;-68
2023/07/25 05:58:54;;;;;;;9.40;3.40;;;;;;;14.70;100.00;99761.09;106193;1257;60850;-70
2023/07/25 06:01:20;;;;;;;7.60;3.50;;;;;;;14.82;100.00;99765.02;106335;1253;70280;-71
2023/07/25 06:03:48;;;;;;;9.40;3.50;;;;;;;14.96;99.96;99762.47;106221;1252;72674;-69
2023/07/25 06:06:14;;;;;;;10.10;3.40;;;;;;;15.09;99.55;99770.95;106054;1253;61238;-68
2023/07/25 06:08:41;;;;;;;8.50;3.00;;;;;;;15.18;97.90;99776.36;106010;1253;61692;-68
2023/07/25 06:11:08;;;;;;;9.00;3.20;;;;;;;15.26;96.73;99784.57;106299;1257;72162;-69
2023/07/25 06:13:35;;;;;;;7.30;2.90;;;;;;;15.30;95.47;99786.27;106146;1253;69899;-68
2023/07/25 06:16:02;;;;;;;6.40;2.90;;;;;;;15.36;95.90;99786.16;106245;1254;72316;-70
2023/07/25 06:18:29;;;;;;;9.20;2.90;;;;;;;15.42;95.62;99790.80;106097;1259;62066;-69
2023/07/25 06:20:56;;;;;;;9.20;2.70;;;;;;;15.43;94.84;99794.31;106187;1257;60451;-70
2023/07/25 06:23:22;;;;;;;7.80;3.20;;;;;;;15.42;94.48;99797.18;106350;1253;72683;-69
2023/07/25 06:25:49;;;;;;;7.90;2.70;;;;;;;15.47;94.79;99799.71;106076;1257;69981;-68
2023/07/25 06:28:16;;;;;;;6.90;2.70;;;;;;;15.52;94.27;99802.23;106058;1253;73858;-69
2023/07/25 06:30:43;;;;;;;9.50;2.80;;;;;;;15.59;94.16;99804.42;105987;1254;61026;-68
2023/07/25 06:33:12;;;;;;;6.90;2.60;;;;;;;15.70;93.50;99812.02;106337;1256;60885;-69
2023/07/25 06:35:39;;;;;;;8.80;2.40;;;;;;;15.80;91.69;99815.55;106147;1252;72983;-68
2023/07/25 06:38:06;;;;;;;9.00;2.70;;;;;;;15.83;90.29;99817.52;106019;1253;70011;-68
2023/07/25 06:40:33;;;;;;;8.70;2.40;;;;;;;15.93;91.10;99814.67;106025;1254;73614;-68
2023/07/25 06:42:59;;;;;;;6.30;2.40;;;;;;;16.07;90.39;99819.45;106062;1253;60782;-70
2023/07/25 06:45:26;;;;;;;7.50;2.40;;;;;;;16.19;89.37;99822.20;106255;1253;60493;-68
2023/07/25 06:47:53;;;;;;;8.20;2.50;;;;;;;16.24;87.68;99827.34;106118;1257;74478;-68
2023/07/25 06:50:20;;;;;;;5.60;2.10;;;;;;;16.33;87.87;99821.86;106125;1253;71101;-68
2023/07/25 06:52:47;;;;;;;10.50;2.50;;;;;;;16.50;87.21;99822.96;106043;1254;71508;-70
2023/07/25 06:55:13;;;;;;;5.20;2.40;;;;;;;16.65;86.04;99825.21;106313;1253;60765;-68
2023/07/25 06:57:40;;;;;;;7.70;2.20;;;;;;;16.77;83.17;99823.27;106146;1253;60458;-69
2023/07/25 07:00:08;;;;;;;6.10;2.00;;;;;;;16.90;83.64;99824.56;106064;1257;72706;-69
2023/07/25 07:02:35;;;;;;;11.20;2.20;;;;;;;17.02;82.39;99823.94;106057;1256;70166;-68
2023/07/25 07:05:02;;;;;;;6.80;2.00;;;;;;;17.16;82.17;99821.15;106151;1255;72659;-69
2023/07/25 07:07:49;;;;;;;6.40;1.70;;;;;;;17.37;80.73;99819.86;106086;1253;64337;-68
2023/07/25 07:10:15;;;;;;;7.30;1.90;;;;;;;17.49;80.16;99814.93;106176;1257;60533;-69
2023/07/25 07:12:47;;;;;;;6.70;2.00;;;;;;;17.51;80.01;99812.81;106009;1253;72829;-69
2023/07/25 07:15:15;;;;;;;7.10;1.90;;;;;;;17.45;79.35;99812.94;106181;1253;71459;-69
2023/07/25 07:17:42;;;;;;;7.40;1.90;;;;;;;17.40;79.11;99812.79;106138;1253;71486;-69
2023/07/25 07:20:09;;;;;;;7.60;2.00;;;;;;;17.43;78.58;99803.52;106086;1253;60563;-68
2023/07/25 07:22:36;;;;;;;9.90;1.80;;;;;;;17.58;78.80;99802.63;106067;1256;60456;-68
2023/07/25 07:25:03;;;;;;;8.80;2.10;;;;;;;17.77;77.25;99803.33;106225;1253;72803;-69
2023/07/25 07:27:30;;;;;;;8.70;2.10;;;;;;;17.91;75.70;99806.27;106083;1257;69715;-68
2023/07/25 07:29:57;;;;;;;7.30;1.80;;;;;;;18.09;76.16;99793.69;106205;1253;72676;-67
2023/07/25 07:32:23;;;;;;;6.50;1.80;;;;;;;18.31;75.03;99797.33;106230;1256;60831;-69
2023/07/25 07:34:50;;;;;;;4.20;1.60;;;;;;;18.33;72.11;99796.33;106291;1253;60445;-69
2023/07/25 07:37:17;;;;;;;6.00;1.50;;;;;;;18.33;71.47;99794.61;106186;1253;72448;-69
2023/07/25 07:39:44;;;;;;;8.10;1.70;;;;;;;18.28;70.89;99796.31;107623;1253;71224;-69
2023/07/25 07:42:11;;;;;;;7.00;1.50;;;;;;;18.23;71.18;99798.02;106330;1257;71514;-69
2023/07/25 07:44:38;;;;;;;5.20;1.70;;;;;;;18.20;72.34;99796.58;105976;1253;62089;-68
2023/07/25 07:47:06;;;;;;;5.60;1.70;;;;;;;18.22;72.50;99798.38;106494;1253;60788;-68
2023/07/25 07:49:34;;;;;;;6.60;1.70;;;;;;;18.23;71.95;99792.38;106151;1253;72310;-67
2023/07/25 07:52:01;;;;;;;6.50;1.80;;;;;;;18.19;70.69;99788.20;106090;1253;71713;-68
2023/07/25 07:54:45;;;;;;;4.90;1.70;;;;;;;18.15;70.77;99785.26;105717;1253;754581;-67
2023/07/25 07:57:12;;;;;;;6.50;2.10;;;;;;;18.14;70.43;99786.77;106138;1253;63042;-69
2023/07/25 07:59:42;;;;;;;6.20;1.70;;;;;;;18.07;70.34;99779.64;106019;1255;60844;-67
2023/07/25 08:02:09;;;;;;;4.30;1.10;;;;;;;18.05;68.98;99778.76;106176;1252;72672;-69
2023/07/25 08:04:36;;;;;;;6.90;2.10;;;;;;;18.07;66.69;99780.08;106205;1253;72555;-69
2023/07/25 08:07:04;;;;;;;7.20;1.60;;;;;;;18.05;65.68;99776.73;106138;1254;71617;-69
2023/07/25 08:09:30;;;;;;;5.40;1.20;;;;;;;18.03;66.74;99772.98;106153;1253;62032;-68
2023/07/25 08:11:58;;;;;;;6.70;1.10;;;;;;;18.12;66.60;99776.51;106163;1253;61593;-68
2023/07/25 08:14:26;;;;;;;5.20;1.60;;;;;;;18.10;66.51;99778.35;106025;1253;72866;-69
2023/07/25 08:16:52;;;;;;;5.80;1.60;;;;;;;18.05;66.45;99775.70;106247;1253;69341;-68
2023/07/25 08:19:19;;;;;;;4.40;1.30;;;;;;;17.92;65.48;99768.05;106108;1253;72957;-67
2023/07/25 08:21:46;;;;;;;7.90;2.20;;;;;;;17.76;66.60;99767.09;106069;1255;60549;-68
2023/07/25 08:24:13;;;;;;;5.00;1.60;;;;;;;17.70;67.72;99768.13;106072;1253;60488;-69
2023/07/25 08:26:40;;;;;;;5.70;1.60;;;;;;;17.78;67.69;99766.60;106208;1253;73147;-70
2023/07/25 08:29:06;;;;;;;7.20;1.40;;;;;;;17.99;67.51;99766.48;106264;1253;70029;-69
2023/07/25 08:31:33;;;;;;;5.70;1.40;;;;;;;18.16;65.17;99766.52;106000;1253;71438;-68
2023/07/25 08:34:00;;;;;;;3.60;1.20;;;;;;;18.28;63.39;99755.94;105886;1253;61643;-68
2023/07/25 08:36:27;;;;;;;8.40;1.40;;;;;;;18.45;64.14;99753.73;106080;1257;60441;-69
2023/07/25 08:38:54;;;;;;;5.20;1.50;;;;;;;18.56;64.10;99756.60;106442;1253;73841;-70
2023/07/25 08:41:26;;;;;;;5.40;1.60;;;;;;;18.46;61.75;99763.84;106093;1256;71199;-68
2023/07/25 08:43:54;;;;;;;6.00;1.40;;;;;;;18.28;62.31;99768.29;106147;1257;70548;-69
2023/07/25 08:46:25;;;;;;;3.70;1.20;;;;;;;18.25;61.86;99770.73;106164;1254;60553;-69
2023/07/25 08:48:58;;;;;;;5.40;1.30;;;;;;;18.37;62.48;99762.11;106326;1256;61531;-67
2023/07/25 08:51:27;;;;;;;5.30;1.40;;;;;;;18.66;62.74;99766.77;106122;1257;72855;-70
2023/07/25 08:54:16;;;;;;;4.10;1.00;;;;;;;18.88;59.77;99766.61;106196;1257;71269;-70
2023/07/25 08:56:47;;;;;;;6.90;1.30;;;;;;;19.12;59.80;99769.16;106209;1259;73710;-69
2023/07/25 08:59:14;;;;;;;4.20;1.20;;;;;;;19.42;59.56;99774.72;106147;1256;60912;-70
2023/07/25 09:01:42;;;;;;;5.00;1.20;;;;;;;19.73;59.41;99769.85;106098;1258;60247;-69
2023/07/25 09:04:10;;;;;;;5.20;1.40;;;;;;;20.10;60.50;99767.89;106259;1257;73933;-70
2023/07/25 09:06:37;;;;;;;5.00;1.30;;;;;;;20.53;58.88;99765.37;106149;1259;71644;-68
2023/07/25 09:09:05;;;;;;;4.50;1.20;;;;;;;20.70;56.74;99765.99;105822;1256;71419;-68
2023/07/25 09:11:34;;;;;;;2.70;0.90;;;;;;;20.43;53.71;99771.21;106135;1253;61198;-68
2023/07/25 09:14:01;;;;;;;4.80;0.90;;;;;;;20.09;53.37;99773.39;106194;1259;60504;-69
2023/07/25 09:16:30;;;;;;;5.00;1.00;;;;;;;19.84;53.07;99778.40;106369;1252;73483;-69
2023/07/25 09:18:57;;;;;;;4.80;1.00;;;;;;;19.83;55.39;99779.80;106325;1257;70019;-71
2023/07/25 09:21:24;;;;;;;5.20;1.10;;;;;;;20.02;55.55;99780.62;106041;1254;73444;-69
2023/07/25 09:23:55;;;;;;;2.20;0.80;;;;;;;20.24;55.14;99771.43;106110;1253;60994;-69
2023/07/25 09:26:30;;;;;;;4.00;1.10;;;;;;;20.44;52.54;99768.34;106187;1256;60476;-69
2023/07/25 09:29:00;;;;;;;4.20;1.30;;;;;;;20.64;53.13;99767.80;106150;1256;72859;-70
2023/07/25 09:31:28;;;;;;;3.30;1.00;;;;;;;20.80;53.29;99769.48;106069;1256;69304;-70
2023/07/25 09:33:56;;;;;;;3.90;1.00;;;;;;;20.67;53.69;99776.98;106271;1253;71488;-72
2023/07/25 09:36:23;;;;;;;4.20;1.00;;;;;;;20.36;54.34;99782.42;106096;1257;60413;-69
2023/07/25 09:38:54;;;;;;;4.30;1.10;;;;;;;20.09;55.04;99786.91;106137;1252;60368;-68
2023/07/25 09:41:23;;;;;;;3.60;1.00;;;;;;;19.87;54.37;99791.61;106232;1253;72771;-68
2023/07/25 09:43:51;;;;;;;3.30;1.00;;;;;;;19.85;54.22;99787.45;106285;1256;71187;-69
2023/07/25 09:46:18;;;;;;;4.30;1.30;;;;;;;19.93;52.53;99784.54;106148;1256;71520;-69
2023/07/25 09:48:48;;;;;;;3.60;1.00;;;;;;;20.06;52.69;99787.05;106193;1256;60538;-69
2023/07/25 09:51:14;;;;;;;5.00;1.20;;;;;;;20.13;52.77;99784.08;106118;1259;60443;-69
2023/07/25 09:53:42;;;;;;;4.20;1.20;;;;;;;20.22;53.44;99776.96;106073;1256;72551;-71
2023/07/25 09:56:10;;;;;;;3.90;1.00;;;;;;;20.45;54.04;99775.13;106285;1253;72329;-69
2023/07/25 09:58:37;;;;;;;3.00;0.90;;;;;;;20.70;53.23;99777.20;106158;1253;71430;-69
2023/07/25 10:01:17;;;;;;;4.60;1.10;;;;;;;20.85;52.09;99777.14;106061;1254;60924;-69
2023/07/25 10:03:45;;;;;;;3.80;0.80;;;;;;;20.96;51.49;99781.22;106392;1256;60386;-70
2023/07/25 10:06:16;;;;;;;3.70;0.80;;;;;;;20.95;49.77;99787.20;106191;1259;74024;-69
2023/07/25 10:08:43;;;;;;;2.70;0.90;;;;;;;20.84;49.41;99783.23;106099;1252;69234;-70
2023/07/25 10:11:12;;;;;;;2.90;1.00;;;;;;;20.70;48.94;99784.76;106235;1253;72697;-68
2023/07/25 10:13:42;;;;;;;3.90;0.80;;;;;;;20.55;49.59;99787.37;106314;1254;60536;-69
2023/07/25 10:16:14;;;;;;;2.80;0.70;;;;;;;20.66;50.48;99783.27;105911;1255;60464;-68
2023/07/25 10:18:41;;;;;;;3.30;0.90;;;;;;;21.05;49.40;99780.04;106144;1254;72360;-69
2023/07/25 10:21:11;;;;;;;4.30;0.80;;;;;;;21.37;47.96;99782.38;106171;1259;70243;-69
2023/07/25 10:23:38;;;;;;;3.10;0.70;;;;;;;21.60;46.05;99783.20;106400;1254;71183;-70
2023/07/25 10:26:11;;;;;;;4.00;0.90;;;;;;;21.76;45.47;99777.58;106193;1253;61865;-69
2023/07/25 10:28:38;;;;;;;3.20;0.90;;;;;;;21.85;45.91;99776.02;106091;1257;60640;-68
2023/07/25 10:31:21;;;;;;;3.20;0.80;;;;;;;21.79;46.14;99774.98;106051;1259;73911;-69
2023/07/25 10:33:58;;;;;;;4.10;0.90;;;;;;;21.74;46.45;99786.98;106225;1258;70122;-69
2023/07/25 10:36:25;;;;;;;4.10;1.20;;;;;;;21.59;46.42;99786.02;106175;1257;73074;-70
2023/07/25 10:39:06;;;;;;;5.20;1.00;;;;;;;21.53;46.84;99780.19;106176;1257;60491;-70
2023/07/25 10:41:33;;;;;;;3.70;0.80;;;;;;;21.58;47.51;99781.90;106188;1254;62083;-70
2023/07/25 10:44:01;;;;;;;4.40;1.10;;;;;;;21.68;47.48;99785.14;106073;1255;72872;-70
2023/07/25 10:46:31;;;;;;;3.00;0.80;;;;;;;21.87;46.64;99781.30;105928;1257;71146;-69
2023/07/25 10:49:01;;;;;;;3.20;0.70;;;;;;;22.13;45.45;99777.95;106457;1254;70218;-70
2023/07/25 10:51:50;;;;;;;3.80;1.30;;;;;;;22.37;45.74;99769.74;106100;1252;59589;-70
2023/07/25 10:54:22;;;;;;;2.70;0.90;;;;;;;22.45;45.42;99772.52;106133;1262;60643;-69
2023/07/25 10:57:15;;;;;;;4.30;1.10;;;;;;;22.50;45.96;99774.51;106190;1257;73992;-73
2023/07/25 11:00:04;;;;;;;3.70;1.00;;;;;;;22.50;46.34;99776.03;106171;1258;71277;-70
2023/07/25 11:02:43;;;;;;;4.20;0.80;;;;;;;22.48;44.10;99779.38;106054;1258;72670;-71
2023/07/25 11:05:13;;;;;;;3.50;0.80;;;;;;;22.50;43.28;99772.94;106088;1254;60594;-69
2023/07/25 11:07:49;;;;;;;3.60;0.80;;;;;;;22.60;42.89;99766.78;106291;1254;60501;-70
2023/07/25 11:10:27;;;;;;;2.90;0.80;;;;;;;22.86;41.60;99768.73;105988;1254;73916;-69
2023/07/25 11:12:59;;;;;;;4.10;0.90;;;;;;;22.95;41.34;99768.82;106281;1257;72407;-70
2023/07/25 11:15:29;;;;;;;3.20;0.70;;;;;;;23.13;41.94;99766.34;106393;1254;71771;-69
2023/07/25 11:18:13;;;;;;;3.20;0.70;;;;;;;23.23;40.98;99772.51;106038;1253;60543;-69
2023/07/25 11:20:40;;;;;;;2.80;0.90;;;;;;;23.05;42.31;99769.27;106059;1253;60408;-69
2023/07/25 11:23:06;;;;;;;3.10;0.90;;;;;;;23.05;43.31;99768.64;106363;1260;72524;-70